createdAt,value
2018-10-03T00:00:17.394Z,10.00
2018-10-03T00:02:52.290Z,9.90
2018-10-03T00:05:27.113Z,10.00
2018-10-03T00:08:01.857Z,10.00
2018-10-03T00:10:36.627Z,10.00
2018-10-03T00:13:12.134Z,10.10
2018-10-03T00:15:46.966Z,10.00
2018-10-03T00:18:21.804Z,10.00
2018-10-03T00:20:56.638Z,10.00
2018-10-03T00:23:31.672Z,10.00
2018-10-03T00:26:06.733Z,10.10
2018-10-03T00:28:41.627Z,10.00
2018-10-03T00:31:17.028Z,10.00
2018-10-03T00:33:51.814Z,10.10
2018-10-03T00:36:26.664Z,10.10
2018-10-03T00:39:01.609Z,10.20
2018-10-03T00:41:36.429Z,10.10
2018-10-03T00:44:11.952Z,10.10
2018-10-03T00:46:46.582Z,10.00
2018-10-03T00:49:21.413Z,10.00
2018-10-03T00:51:56.134Z,9.90
2018-10-03T00:54:30.982Z,10.00
2018-10-03T00:57:06.040Z,10.10
2018-10-03T00:59:41.148Z,10.10
2018-10-03T01:02:16.090Z,10.00
2018-10-03T01:04:51.034Z,10.10
2018-10-03T01:07:25.886Z,10.00
2018-10-03T01:10:01.186Z,10.10
2018-10-03T01:12:35.897Z,10.10
2018-10-03T01:15:11.165Z,10.10
2018-10-03T01:17:46.211Z,10.20
2018-10-03T01:20:21.029Z,10.20
2018-10-03T01:22:55.769Z,10.20
2018-10-03T01:25:30.585Z,10.10
2018-10-03T01:28:05.484Z,10.10
2018-10-03T01:30:40.241Z,10.20
2018-10-03T01:33:15.002Z,10.20
2018-10-03T01:35:49.779Z,10.30
2018-10-03T01:38:25.167Z,10.40
2018-10-03T01:41:00.877Z,10.30
2018-10-03T01:43:35.547Z,10.40
2018-10-03T01:46:10.406Z,10.40
2018-10-03T01:48:45.195Z,10.30
2018-10-03T01:51:20.753Z,10.40
2018-10-03T01:53:55.570Z,10.30
2018-10-03T01:56:30.617Z,10.30
2018-10-03T01:59:05.422Z,10.40
2018-10-03T02:01:40.178Z,10.40
2018-10-03T02:04:15.030Z,10.40
2018-10-03T02:06:49.910Z,10.40
2018-10-03T02:09:25.354Z,10.40
2018-10-03T02:12:01.457Z,10.40
2018-10-03T02:14:36.922Z,10.40
2018-10-03T02:17:12.048Z,10.40
2018-10-03T02:19:46.897Z,10.40
2018-10-03T02:22:21.811Z,10.40
2018-10-03T02:24:56.550Z,10.40
2018-10-03T02:27:32.202Z,10.50
2018-10-03T02:30:07.200Z,10.50
2018-10-03T02:32:42.024Z,10.50
2018-10-03T02:35:16.771Z,10.60
2018-10-03T02:37:51.566Z,10.50
2018-10-03T02:40:26.368Z,10.50
2018-10-03T02:43:01.321Z,10.60
2018-10-03T02:45:35.946Z,10.60
2018-10-03T02:48:10.922Z,10.60
2018-10-03T02:50:45.715Z,10.60
2018-10-03T02:53:20.441Z,10.60
2018-10-03T02:55:55.380Z,10.60
2018-10-03T02:58:30.107Z,10.70
2018-10-03T03:01:04.771Z,10.70
2018-10-03T03:03:39.538Z,10.70
2018-10-03T03:06:14.523Z,10.70
2018-10-03T03:08:49.622Z,10.70
2018-10-03T03:11:24.496Z,10.70
2018-10-03T03:13:59.614Z,10.80
2018-10-03T03:16:34.448Z,10.80
2018-10-03T03:19:09.378Z,10.80
2018-10-03T03:21:44.341Z,10.80
2018-10-03T03:24:19.064Z,10.70
2018-10-03T03:26:54.406Z,10.70
2018-10-03T03:29:29.234Z,10.70
2018-10-03T03:32:03.973Z,10.80
2018-10-03T03:34:39.115Z,10.80
2018-10-03T03:37:13.857Z,10.90
2018-10-03T03:39:49.282Z,10.80
2018-10-03T03:42:24.011Z,10.80
2018-10-03T03:44:58.854Z,10.90
2018-10-03T03:47:34.260Z,10.80
2018-10-03T03:50:09.112Z,10.80
2018-10-03T03:52:43.897Z,10.80
2018-10-03T03:55:18.774Z,10.80
2018-10-03T03:57:53.605Z,10.70
2018-10-03T04:00:28.354Z,10.80
2018-10-03T04:03:03.673Z,10.80
2018-10-03T04:05:39.223Z,10.70
2018-10-03T04:08:14.290Z,10.70
2018-10-03T04:10:49.427Z,10.70
2018-10-03T04:13:24.362Z,10.70
2018-10-03T04:15:59.369Z,10.70
2018-10-03T04:18:34.121Z,10.70
2018-10-03T04:21:08.930Z,10.70
2018-10-03T04:23:44.293Z,10.70
2018-10-03T04:26:18.959Z,10.70
2018-10-03T04:28:53.732Z,10.80
2018-10-03T04:31:28.468Z,10.80
2018-10-03T04:34:04.325Z,10.70
2018-10-03T04:36:39.033Z,10.70
2018-10-03T04:39:13.781Z,10.70
2018-10-03T04:41:48.587Z,10.70
2018-10-03T04:44:23.337Z,10.60
2018-10-03T04:46:58.409Z,10.70
2018-10-03T04:49:33.186Z,10.80
2018-10-03T04:52:08.233Z,10.80
2018-10-03T04:54:42.907Z,10.80
2018-10-03T04:57:18.149Z,10.70
2018-10-03T04:59:53.420Z,10.80
2018-10-03T05:02:28.221Z,10.80
2018-10-03T05:05:03.197Z,10.80
2018-10-03T05:07:37.995Z,10.80
2018-10-03T05:10:13.454Z,10.80
2018-10-03T05:12:48.191Z,10.80
2018-10-03T05:15:22.942Z,10.90
2018-10-03T05:17:57.766Z,10.80
2018-10-03T05:20:33.694Z,10.80
2018-10-03T05:23:09.402Z,10.90
2018-10-03T05:25:44.094Z,10.80
2018-10-03T05:28:18.780Z,10.80
2018-10-03T05:30:53.530Z,10.90
2018-10-03T05:33:28.848Z,10.80
2018-10-03T05:36:03.554Z,10.80
2018-10-03T05:38:38.326Z,10.80
2018-10-03T05:41:13.301Z,10.80
2018-10-03T05:43:48.837Z,10.80
2018-10-03T05:46:23.794Z,10.80
2018-10-03T05:48:58.623Z,10.80
2018-10-03T05:51:33.502Z,10.80
2018-10-03T05:54:08.855Z,10.90
2018-10-03T05:56:43.639Z,10.90
2018-10-03T05:59:18.540Z,11.00
2018-10-03T06:01:53.854Z,11.00
2018-10-03T06:04:28.494Z,11.00
2018-10-03T06:07:03.390Z,11.10
2018-10-03T06:09:38.176Z,11.10
2018-10-03T06:12:13.024Z,11.00
2018-10-03T06:14:48.342Z,11.00
2018-10-03T06:17:23.306Z,11.10
2018-10-03T06:19:58.514Z,11.10
2018-10-03T06:22:33.319Z,11.20
2018-10-03T06:25:09.210Z,11.20
2018-10-03T06:27:44.017Z,11.20
2018-10-03T06:30:18.982Z,11.20
2018-10-03T06:32:53.778Z,11.30
2018-10-03T06:35:28.571Z,11.40
2018-10-03T06:38:03.797Z,11.30
2018-10-03T06:40:38.623Z,11.30
2018-10-03T06:43:13.506Z,11.40
2018-10-03T06:45:48.308Z,11.40
2018-10-03T06:48:23.422Z,11.50
2018-10-03T06:50:58.249Z,11.50
2018-10-03T06:53:33.094Z,11.50
2018-10-03T06:56:08.706Z,11.40
2018-10-03T06:58:44.195Z,11.50
2018-10-03T07:01:19.192Z,11.60
2018-10-03T07:03:54.068Z,11.60
2018-10-03T07:06:28.872Z,11.60
2018-10-03T07:09:04.572Z,11.70
2018-10-03T07:11:39.385Z,11.70
2018-10-03T07:14:14.821Z,11.80
2018-10-03T07:16:49.877Z,11.80
2018-10-03T07:19:24.670Z,11.80
2018-10-03T07:21:59.649Z,11.80
2018-10-03T07:24:34.472Z,11.80
2018-10-03T07:27:09.663Z,11.80
2018-10-03T07:29:44.751Z,11.90
2018-10-03T07:32:19.890Z,11.70
2018-10-03T07:34:54.716Z,11.80
2018-10-03T07:37:30.174Z,11.80
2018-10-03T07:40:05.545Z,11.80
2018-10-03T07:42:40.185Z,11.80
2018-10-03T07:45:16.055Z,11.70
2018-10-03T07:47:51.446Z,11.70
2018-10-03T07:50:26.500Z,11.70
2018-10-03T07:53:01.637Z,11.80
2018-10-03T07:55:37.192Z,11.70
2018-10-03T07:58:11.826Z,11.70
2018-10-03T08:00:46.622Z,11.80
2018-10-03T08:03:21.570Z,11.80
2018-10-03T08:05:56.381Z,11.80
2018-10-03T08:08:31.261Z,11.80
2018-10-03T08:11:06.018Z,11.90
2018-10-03T08:13:41.012Z,11.80
2018-10-03T08:16:15.868Z,11.90
2018-10-03T08:18:51.576Z,11.90
2018-10-03T08:21:27.211Z,11.90
2018-10-03T08:24:01.967Z,12.00
2018-10-03T08:26:36.900Z,12.00
2018-10-03T08:29:11.742Z,12.00
2018-10-03T08:31:47.114Z,12.10
2018-10-03T08:34:21.849Z,12.00
2018-10-03T08:36:56.565Z,12.20
2018-10-03T08:39:31.311Z,12.40
2018-10-03T08:42:07.022Z,12.60
2018-10-03T08:44:42.098Z,12.70
2018-10-03T08:47:16.733Z,12.70
2018-10-03T08:49:51.401Z,12.80
2018-10-03T08:52:26.254Z,12.80
2018-10-03T08:55:01.805Z,13.10
2018-10-03T08:57:36.958Z,13.10
2018-10-03T09:00:12.610Z,13.30
2018-10-03T09:02:47.366Z,13.20
2018-10-03T09:05:22.396Z,13.20
2018-10-03T09:08:09.925Z,13.30
2018-10-03T09:10:46.087Z,13.40
2018-10-03T09:13:21.047Z,13.60
2018-10-03T09:15:55.885Z,13.40
2018-10-03T09:18:30.800Z,13.60
2018-10-03T09:21:05.638Z,13.60
2018-10-03T09:23:40.394Z,13.50
2018-10-03T09:26:15.176Z,13.60
2018-10-03T09:28:50.047Z,13.60
2018-10-03T09:31:25.663Z,13.50
2018-10-03T09:34:00.551Z,13.60
2018-10-03T09:36:35.370Z,13.60
2018-10-03T09:39:11.494Z,13.50
2018-10-03T09:41:46.278Z,13.90
2018-10-03T09:44:22.202Z,14.40
2018-10-03T09:46:57.146Z,14.40
2018-10-03T09:49:32.081Z,14.60
2018-10-03T09:52:07.192Z,15.20
2018-10-03T09:54:41.955Z,15.30
2018-10-03T09:57:16.712Z,15.60
2018-10-03T09:59:51.750Z,15.10
2018-10-03T10:02:26.579Z,15.40
2018-10-03T10:05:01.419Z,15.40
2018-10-03T10:07:36.413Z,15.40
2018-10-03T10:10:11.276Z,15.70
2018-10-03T10:12:46.226Z,16.10
2018-10-03T10:15:21.908Z,15.90
2018-10-03T10:17:57.451Z,16.00
2018-10-03T10:20:32.949Z,16.00
2018-10-03T10:23:09.186Z,15.80
2018-10-03T10:25:44.587Z,15.60
2018-10-03T10:28:19.548Z,15.40
2018-10-03T10:30:55.014Z,15.40
2018-10-03T10:33:29.829Z,15.60
2018-10-03T10:36:04.839Z,15.50
2018-10-03T10:38:39.895Z,15.30
2018-10-03T10:41:14.751Z,15.50
2018-10-03T10:43:49.647Z,15.30
2018-10-03T10:46:24.823Z,14.90
2018-10-03T10:49:01.077Z,14.90
2018-10-03T10:51:36.205Z,15.00
2018-10-03T10:54:11.321Z,14.70
2018-10-03T10:56:46.141Z,14.80
2018-10-03T10:59:20.889Z,14.50
2018-10-03T11:01:55.756Z,14.60
2018-10-03T11:04:31.384Z,14.60
2018-10-03T11:07:06.911Z,14.60
2018-10-03T11:09:42.157Z,14.80
2018-10-03T11:12:16.955Z,14.50
2018-10-03T11:14:52.235Z,14.40
2018-10-03T11:17:27.455Z,14.50
2018-10-03T11:20:02.211Z,14.50
2018-10-03T11:22:36.915Z,14.40
2018-10-03T11:25:11.787Z,14.90
2018-10-03T11:27:46.782Z,14.90
2018-10-03T11:30:21.741Z,15.10
2018-10-03T11:32:56.388Z,15.50
2018-10-03T11:35:31.418Z,15.60
2018-10-03T11:38:07.706Z,16.20
2018-10-03T11:40:43.449Z,15.90
2018-10-03T11:43:18.239Z,16.40
2018-10-03T11:45:53.884Z,16.30
2018-10-03T11:48:29.577Z,16.30
2018-10-03T11:51:05.079Z,16.50
2018-10-03T11:53:41.258Z,16.50
2018-10-03T11:56:16.658Z,16.30
2018-10-03T11:58:51.965Z,16.40
2018-10-03T12:01:27.900Z,16.40
2018-10-03T12:04:03.299Z,16.70
2018-10-03T12:06:38.696Z,17.20
2018-10-03T12:09:14.256Z,16.40
2018-10-03T12:11:49.798Z,16.30
2018-10-03T12:14:25.382Z,16.80
2018-10-03T12:17:01.458Z,17.70
2018-10-03T12:19:36.738Z,17.90
2018-10-03T12:22:12.580Z,18.30
2018-10-03T12:24:47.989Z,18.40
2018-10-03T12:27:24.175Z,18.80
2018-10-03T12:29:59.377Z,17.80
2018-10-03T12:32:34.878Z,17.30
2018-10-03T12:35:10.326Z,16.50
2018-10-03T12:37:45.755Z,16.70
2018-10-03T12:40:21.077Z,16.50
2018-10-03T12:42:57.296Z,16.00
2018-10-03T12:45:32.197Z,16.10
2018-10-03T12:48:07.522Z,16.30
2018-10-03T12:50:42.343Z,16.40
2018-10-03T12:53:17.834Z,16.40
2018-10-03T12:55:52.524Z,16.40
2018-10-03T12:58:27.366Z,16.60
2018-10-03T13:01:02.785Z,16.20
2018-10-03T13:03:37.722Z,16.30
2018-10-03T13:06:13.782Z,16.30
2018-10-03T13:08:49.224Z,16.20
2018-10-03T13:11:24.208Z,16.20
2018-10-03T13:13:59.629Z,16.30
2018-10-03T13:16:35.512Z,16.20
2018-10-03T13:19:10.584Z,16.40
2018-10-03T13:21:45.728Z,16.10
2018-10-03T13:24:20.622Z,16.30
2018-10-03T13:26:55.354Z,16.30
2018-10-03T13:29:30.226Z,16.60
2018-10-03T13:32:05.730Z,16.50
2018-10-03T13:34:40.427Z,16.30
2018-10-03T13:37:15.254Z,16.20
2018-10-03T13:39:50.446Z,16.40
2018-10-03T13:42:25.390Z,16.60
2018-10-03T13:45:00.873Z,16.30
2018-10-03T13:47:36.785Z,15.90
2018-10-03T13:50:11.674Z,16.30
2018-10-03T13:52:46.517Z,16.20
2018-10-03T13:55:21.282Z,16.30
2018-10-03T13:57:56.738Z,16.50
2018-10-03T14:00:31.394Z,16.60
2018-10-03T14:03:06.497Z,16.30
2018-10-03T14:05:41.166Z,16.20
2018-10-03T14:08:17.311Z,16.60
2018-10-03T14:10:52.748Z,17.40
2018-10-03T14:13:28.460Z,17.00
2018-10-03T14:16:04.011Z,16.70
2018-10-03T14:18:39.096Z,16.40
2018-10-03T14:21:14.564Z,16.40
2018-10-03T14:23:49.353Z,15.90
2018-10-03T14:26:24.300Z,15.90
2018-10-03T14:28:59.093Z,15.90
2018-10-03T14:31:33.949Z,15.60
2018-10-03T14:34:09.030Z,15.30
2018-10-03T14:36:44.146Z,15.10
2018-10-03T14:39:19.071Z,15.00
2018-10-03T14:41:53.886Z,14.90
2018-10-03T14:44:28.605Z,14.90
2018-10-03T14:47:03.474Z,14.70
2018-10-03T14:49:38.186Z,14.60
2018-10-03T14:52:13.287Z,14.70
2018-10-03T14:54:49.313Z,14.60
2018-10-03T14:57:24.339Z,14.70
2018-10-03T14:59:59.894Z,14.80
2018-10-03T15:02:34.922Z,14.90
2018-10-03T15:05:09.975Z,14.60
2018-10-03T15:07:44.995Z,14.80
2018-10-03T15:10:19.801Z,15.00
2018-10-03T15:12:54.893Z,15.00
2018-10-03T15:15:29.855Z,15.20
2018-10-03T15:18:04.885Z,15.40
2018-10-03T15:20:41.433Z,15.20
2018-10-03T15:23:16.290Z,15.20
2018-10-03T15:25:51.027Z,15.20
2018-10-03T15:28:26.215Z,14.90
2018-10-03T15:31:00.989Z,15.30
2018-10-03T15:33:36.122Z,15.40
2018-10-03T15:36:11.154Z,15.30
2018-10-03T15:38:46.092Z,15.30
2018-10-03T15:41:20.973Z,15.10
2018-10-03T15:43:56.201Z,15.20
2018-10-03T15:46:32.229Z,15.20
2018-10-03T15:49:07.562Z,15.20
2018-10-03T15:51:42.784Z,15.20
2018-10-03T15:54:17.738Z,15.10
2018-10-03T15:56:53.352Z,15.20
2018-10-03T15:59:28.105Z,15.00
2018-10-03T16:02:02.945Z,15.20
2018-10-03T16:04:37.648Z,15.10
2018-10-03T16:07:12.381Z,15.30
2018-10-03T16:09:47.990Z,15.30
2018-10-03T16:12:23.112Z,15.10
2018-10-03T16:14:57.927Z,15.00
2018-10-03T16:17:32.671Z,14.90
2018-10-03T16:20:07.881Z,14.90
2018-10-03T16:22:43.134Z,14.80
2018-10-03T16:25:17.991Z,14.80
2018-10-03T16:27:53.762Z,14.60
2018-10-03T16:30:28.494Z,14.80
2018-10-03T16:33:03.552Z,14.80
2018-10-03T16:35:39.159Z,14.80
2018-10-03T16:38:14.533Z,14.60
2018-10-03T16:40:49.371Z,14.60
2018-10-03T16:43:24.309Z,14.60
2018-10-03T16:45:59.132Z,14.50
2018-10-03T16:48:34.119Z,14.50
2018-10-03T16:51:08.856Z,14.40
2018-10-03T16:53:43.672Z,14.40
2018-10-03T16:56:18.406Z,14.30
2018-10-03T16:58:53.939Z,14.30
2018-10-03T17:01:29.330Z,14.30
2018-10-03T17:04:04.074Z,14.20
2018-10-03T17:06:39.025Z,14.20
2018-10-03T17:09:14.641Z,14.20
2018-10-03T17:11:51.066Z,14.00
2018-10-03T17:14:35.607Z,13.80
2018-10-03T17:17:11.366Z,13.80
2018-10-03T17:19:46.182Z,13.80
2018-10-03T17:22:21.256Z,13.90
2018-10-03T17:24:57.010Z,13.70
2018-10-03T17:27:31.958Z,13.70
2018-10-03T17:30:06.957Z,13.80
2018-10-03T17:32:41.905Z,13.80
2018-10-03T17:35:16.718Z,13.70
2018-10-03T17:37:51.709Z,13.70
2018-10-03T17:40:26.580Z,13.50
2018-10-03T17:43:01.640Z,13.40
2018-10-03T17:45:36.579Z,13.40
2018-10-03T17:48:11.467Z,13.30
2018-10-03T17:50:46.251Z,13.30
2018-10-03T17:53:21.107Z,13.30
2018-10-03T17:55:56.064Z,13.30
2018-10-03T17:58:31.613Z,13.30
2018-10-03T18:01:06.496Z,13.30
2018-10-03T18:03:41.247Z,13.20
2018-10-03T18:06:16.007Z,13.20
2018-10-03T18:08:51.264Z,13.20
2018-10-03T18:11:26.191Z,13.10
2018-10-03T18:14:01.062Z,13.10
2018-10-03T18:16:36.084Z,13.00
2018-10-03T18:19:10.757Z,12.90
2018-10-03T18:21:46.048Z,12.80
2018-10-03T18:24:21.361Z,12.70
2018-10-03T18:26:56.372Z,12.60
2018-10-03T18:29:31.156Z,12.60
2018-10-03T18:32:06.548Z,12.60
2018-10-03T18:34:41.577Z,12.40
2018-10-03T18:37:16.992Z,12.50
2018-10-03T18:39:52.569Z,12.50
2018-10-03T18:42:28.347Z,12.50
2018-10-03T18:45:03.637Z,12.40
2018-10-03T18:47:40.184Z,12.30
2018-10-03T18:50:15.471Z,12.30
2018-10-03T18:52:50.752Z,12.30
2018-10-03T18:55:26.833Z,12.30
2018-10-03T18:58:01.947Z,12.10
2018-10-03T19:00:37.138Z,11.90
2018-10-03T19:03:13.606Z,11.90
2018-10-03T19:05:48.975Z,12.00
2018-10-03T19:08:24.782Z,12.00
2018-10-03T19:11:00.207Z,11.70
2018-10-03T19:13:35.831Z,11.80
2018-10-03T19:16:11.363Z,11.60
2018-10-03T19:18:46.812Z,11.70
2018-10-03T19:21:21.981Z,11.80
2018-10-03T19:23:57.526Z,11.70
2018-10-03T19:26:32.884Z,11.60
2018-10-03T19:29:08.248Z,11.70
2018-10-03T19:31:43.933Z,11.50
2018-10-03T19:34:19.265Z,11.50
2018-10-03T19:36:54.645Z,11.60
2018-10-03T19:39:29.976Z,11.70
2018-10-03T19:42:05.260Z,11.60
2018-10-03T19:44:40.596Z,11.60
2018-10-03T19:47:15.523Z,11.30
2018-10-03T19:49:50.530Z,11.40
2018-10-03T19:52:25.842Z,11.40
2018-10-03T19:55:00.869Z,11.40
2018-10-03T19:57:36.021Z,11.50
2018-10-03T20:00:11.060Z,11.50
2018-10-03T20:02:46.304Z,11.40
2018-10-03T20:05:21.379Z,11.30
2018-10-03T20:07:56.129Z,11.40
2018-10-03T20:10:31.759Z,11.40
2018-10-03T20:13:07.186Z,11.40
2018-10-03T20:15:41.922Z,11.30
2018-10-03T20:18:16.876Z,11.20
2018-10-03T20:20:52.691Z,11.20
2018-10-03T20:23:27.639Z,11.10
2018-10-03T20:26:02.756Z,11.10
2018-10-03T20:28:37.704Z,11.10
2018-10-03T20:31:13.230Z,11.10
2018-10-03T20:33:48.069Z,10.90
2018-10-03T20:36:23.578Z,10.90
2018-10-03T20:38:58.553Z,10.80
2018-10-03T20:41:33.423Z,10.80
2018-10-03T20:44:08.748Z,10.80
2018-10-03T20:46:43.663Z,10.70
2018-10-03T20:49:18.437Z,10.70
2018-10-03T20:51:53.167Z,10.70
2018-10-03T20:54:28.074Z,10.60
2018-10-03T20:57:03.377Z,10.60
2018-10-03T20:59:38.345Z,10.60
2018-10-03T21:02:13.042Z,10.60
2018-10-03T21:04:47.923Z,10.50
2018-10-03T21:07:22.909Z,10.50
2018-10-03T21:09:59.290Z,10.40
2018-10-03T21:12:34.147Z,10.40
2018-10-03T21:15:09.453Z,10.40
2018-10-03T21:17:44.300Z,10.30
2018-10-03T21:20:19.131Z,10.30
2018-10-03T21:22:54.582Z,10.30
2018-10-03T21:25:29.382Z,10.40
2018-10-03T21:28:05.390Z,10.40
2018-10-03T21:30:40.310Z,10.40
2018-10-03T21:33:15.249Z,10.40
2018-10-03T21:35:50.269Z,10.40
2018-10-03T21:38:25.009Z,10.50
2018-10-03T21:40:59.816Z,10.40
2018-10-03T21:43:34.743Z,10.40
2018-10-03T21:46:09.858Z,10.50
2018-10-03T21:48:44.719Z,10.40
2018-10-03T21:51:19.483Z,10.50
2018-10-03T21:53:54.387Z,10.50
2018-10-03T21:56:29.250Z,10.50
2018-10-03T21:59:04.148Z,10.50
2018-10-03T22:01:39.963Z,10.40
2018-10-03T22:04:14.887Z,10.40
2018-10-03T22:06:49.626Z,10.40
2018-10-03T22:09:24.418Z,10.40
2018-10-03T22:11:59.232Z,10.30
2018-10-03T22:14:34.033Z,10.20
2018-10-03T22:17:16.293Z,10.10
2018-10-03T22:19:51.146Z,10.10
2018-10-03T22:22:26.048Z,10.00
2018-10-03T22:25:01.569Z,10.00
2018-10-03T22:27:36.174Z,10.00
2018-10-03T22:30:14.325Z,9.90
2018-10-03T22:32:49.597Z,9.80
2018-10-03T22:35:24.505Z,9.80
2018-10-03T22:37:59.196Z,9.70
2018-10-03T22:40:34.079Z,9.60
2018-10-03T22:43:08.957Z,9.60
2018-10-03T22:45:43.747Z,9.50
2018-10-03T22:48:18.373Z,9.50
2018-10-03T22:50:53.051Z,9.40
2018-10-03T22:53:27.991Z,9.30
2018-10-03T22:56:02.805Z,9.30
2018-10-03T22:58:37.638Z,9.20
2018-10-03T23:01:12.475Z,9.20
2018-10-03T23:03:47.098Z,9.20
2018-10-03T23:06:22.049Z,9.20
2018-10-03T23:08:56.685Z,9.10
2018-10-03T23:11:31.602Z,9.10
2018-10-03T23:14:06.517Z,9.00
2018-10-03T23:16:41.394Z,8.90
2018-10-03T23:19:16.589Z,8.90
2018-10-03T23:21:51.312Z,8.80
2018-10-03T23:24:26.071Z,8.80
2018-10-03T23:27:00.814Z,8.80
2018-10-03T23:29:35.653Z,8.80
2018-10-03T23:32:10.531Z,8.60
2018-10-03T23:34:45.293Z,8.60
2018-10-03T23:37:20.114Z,8.60
2018-10-03T23:39:55.013Z,8.60
2018-10-03T23:42:29.809Z,8.50
2018-10-03T23:45:04.903Z,8.40
2018-10-03T23:47:39.921Z,8.40
2018-10-03T23:50:14.861Z,8.40
2018-10-03T23:52:49.809Z,8.50
2018-10-03T23:55:24.670Z,8.40
2018-10-03T23:57:59.655Z,8.40
